createdAt,value
2023-01-31T00:01:22.924Z,100857.06
2023-01-31T00:03:56.645Z,100862.91
2023-01-31T00:06:25.148Z,100864.53
2023-01-31T00:08:52.594Z,100870.94
2023-01-31T00:11:21.174Z,100872.44
2023-01-31T00:13:48.258Z,100875.34
2023-01-31T00:16:15.973Z,100875.34
2023-01-31T00:18:43.148Z,100868.38
2023-01-31T00:21:18.485Z,100888.50
2023-01-31T00:23:46.260Z,100886.34
2023-01-31T00:26:18.204Z,100883.88
2023-01-31T00:28:45.678Z,100886.06
2023-01-31T00:31:13.584Z,100892.47
2023-01-31T00:33:41.569Z,100895.97
2023-01-31T00:36:10.937Z,100900.75
2023-01-31T00:38:38.740Z,100899.47
2023-01-31T00:41:05.954Z,100907.28
2023-01-31T00:43:33.188Z,100914.53
2023-01-31T00:46:00.308Z,100922.28
2023-01-31T00:48:27.446Z,100912.03
2023-01-31T00:50:54.001Z,100922.47
2023-01-31T00:53:23.859Z,100931.63
2023-01-31T00:55:51.787Z,100922.09
2023-01-31T00:58:18.376Z,100930.81
2023-01-31T01:00:44.943Z,100929.63
2023-01-31T01:03:11.776Z,100936.06
2023-01-31T01:05:38.287Z,100932.91
2023-01-31T01:08:05.201Z,100938.66
2023-01-31T01:10:32.255Z,100937.47
2023-01-31T01:12:58.815Z,100947.09
2023-01-31T01:15:25.340Z,100945.59
2023-01-31T01:17:52.013Z,100947.88
2023-01-31T01:20:19.936Z,100946.09
2023-01-31T01:22:46.494Z,100949.75
2023-01-31T01:25:14.007Z,100952.16
2023-01-31T01:27:40.497Z,100954.03
2023-01-31T01:30:07.971Z,100960.88
2023-01-31T01:32:34.836Z,100953.53
2023-01-31T01:35:01.514Z,100958.91
2023-01-31T01:37:28.008Z,100953.53
2023-01-31T01:39:54.627Z,100968.63
2023-01-31T01:42:25.261Z,100963.34
2023-01-31T01:44:57.371Z,100968.63
2023-01-31T01:47:45.370Z,100974.06
2023-01-31T01:50:17.262Z,100981.25
2023-01-31T01:52:47.822Z,100984.88
2023-01-31T01:55:20.584Z,100996.72
2023-01-31T01:57:51.482Z,101007.44
2023-01-31T02:00:24.207Z,101007.75
2023-01-31T02:02:54.670Z,101010.41
2023-01-31T02:05:26.983Z,101019.94
2023-01-31T02:07:53.376Z,101024.91
2023-01-31T02:10:31.532Z,101019.66
2023-01-31T02:12:58.509Z,101014.50
2023-01-31T02:15:28.403Z,101007.06
2023-01-31T02:17:54.887Z,101021.25
2023-01-31T02:20:50.609Z,101029.69
2023-01-31T02:23:33.595Z,101024.34
2023-01-31T02:26:27.020Z,101043.88
2023-01-31T02:29:03.497Z,101047.19
2023-01-31T02:31:45.667Z,101051.53
2023-01-31T02:34:35.821Z,101054.50
2023-01-31T02:37:18.203Z,101053.50
2023-01-31T02:40:08.367Z,101064.44
2023-01-31T02:42:48.234Z,101069.91
2023-01-31T02:45:40.917Z,101058.25
2023-01-31T02:48:19.348Z,101060.38
2023-01-31T02:51:01.335Z,101056.97
2023-01-31T02:53:37.144Z,101063.22
2023-01-31T02:56:14.706Z,101063.50
2023-01-31T02:58:45.081Z,101062.41
2023-01-31T03:01:15.564Z,101063.78
2023-01-31T03:03:42.082Z,101068.53
2023-01-31T03:06:22.987Z,101056.53
2023-01-31T03:09:21.998Z,101056.13
2023-01-31T03:12:04.049Z,101057.69
2023-01-31T03:14:36.395Z,101063.72
2023-01-31T03:17:33.190Z,101059.72
2023-01-31T03:20:17.759Z,101068.16
2023-01-31T03:22:48.735Z,101066.69
2023-01-31T03:25:17.111Z,101063.03
2023-01-31T03:27:49.563Z,101067.81
2023-01-31T03:30:22.964Z,101079.59
2023-01-31T03:32:53.925Z,101077.22
2023-01-31T03:35:26.188Z,101081.41
2023-01-31T03:37:59.652Z,101084.66
2023-01-31T03:41:01.185Z,101089.72
2023-01-31T03:43:32.506Z,101093.34
2023-01-31T03:46:40.198Z,101087.69
2023-01-31T03:49:09.209Z,101101.00
2023-01-31T03:51:38.008Z,101092.91
2023-01-31T03:54:09.076Z,101092.69
2023-01-31T03:56:46.232Z,101094.28
2023-01-31T03:59:16.529Z,101094.53
2023-01-31T04:01:48.697Z,101108.06
2023-01-31T04:04:24.746Z,101107.03
2023-01-31T04:06:51.472Z,101121.50
2023-01-31T04:09:22.872Z,101117.75
2023-01-31T04:11:50.344Z,101120.91
2023-01-31T04:14:17.455Z,101115.63
2023-01-31T04:16:44.197Z,101121.50
2023-01-31T04:19:10.820Z,101122.34
2023-01-31T04:21:37.903Z,101120.81
2023-01-31T04:24:04.490Z,101120.75
2023-01-31T04:26:31.101Z,101121.84
2023-01-31T04:28:57.673Z,101115.47
2023-01-31T04:31:24.267Z,101113.38
2023-01-31T04:33:50.776Z,101124.81
2023-01-31T04:36:17.273Z,101118.69
2023-01-31T04:38:43.818Z,101121.91
2023-01-31T04:41:10.947Z,101126.25
2023-01-31T04:43:37.456Z,101137.91
2023-01-31T04:46:04.178Z,101134.97
2023-01-31T04:48:30.791Z,101142.47
2023-01-31T04:50:57.308Z,101152.03
2023-01-31T04:53:23.801Z,101149.44
2023-01-31T04:55:50.371Z,101151.44
2023-01-31T04:58:17.039Z,101150.66
2023-01-31T05:00:45.009Z,101139.81
2023-01-31T05:03:11.804Z,101144.00
2023-01-31T05:05:38.422Z,101147.00
2023-01-31T05:08:05.628Z,101141.63
2023-01-31T05:10:32.718Z,101144.66
2023-01-31T05:12:59.265Z,101144.25
2023-01-31T05:15:25.795Z,101142.06
2023-01-31T05:17:53.464Z,101148.44
2023-01-31T05:20:19.990Z,101147.69
2023-01-31T05:22:49.377Z,101144.44
2023-01-31T05:25:15.953Z,101139.94
2023-01-31T05:27:43.734Z,101146.31
2023-01-31T05:30:11.170Z,101146.81
2023-01-31T05:32:37.764Z,101146.75
2023-01-31T05:35:04.456Z,101146.25
2023-01-31T05:37:31.438Z,101162.25
2023-01-31T05:39:57.997Z,101149.94
2023-01-31T05:42:24.537Z,101155.81
2023-01-31T05:44:51.006Z,101165.88
2023-01-31T05:47:17.511Z,101169.19
2023-01-31T05:49:44.049Z,101174.19
2023-01-31T05:52:10.511Z,101161.84
2023-01-31T05:54:36.970Z,101168.81
2023-01-31T05:57:03.475Z,101185.88
2023-01-31T05:59:32.294Z,101173.50
2023-01-31T06:01:58.841Z,101175.00
2023-01-31T06:04:25.335Z,101183.13
2023-01-31T06:06:51.976Z,101172.41
2023-01-31T06:09:18.535Z,101184.97
2023-01-31T06:11:45.213Z,101181.75
2023-01-31T06:14:11.756Z,101180.97
2023-01-31T06:16:38.433Z,101177.19
2023-01-31T06:19:05.020Z,101181.38
2023-01-31T06:21:32.028Z,101180.50
2023-01-31T06:23:58.658Z,101189.34
2023-01-31T06:26:25.219Z,101181.50
2023-01-31T06:28:51.763Z,101194.63
2023-01-31T06:31:18.623Z,101203.97
2023-01-31T06:33:47.777Z,101205.56
2023-01-31T06:36:18.639Z,101213.19
2023-01-31T06:38:49.087Z,101204.25
2023-01-31T06:41:16.264Z,101201.09
2023-01-31T06:43:42.779Z,101208.47
2023-01-31T06:46:09.417Z,101206.66
2023-01-31T06:48:35.974Z,101210.56
2023-01-31T06:51:02.939Z,101206.34
2023-01-31T06:53:29.411Z,101201.50
2023-01-31T06:55:56.371Z,101206.59
2023-01-31T06:58:22.888Z,101218.00
2023-01-31T07:00:49.523Z,101200.13
2023-01-31T07:03:16.027Z,101202.50
2023-01-31T07:05:42.799Z,101214.22
2023-01-31T07:08:09.280Z,101223.28
2023-01-31T07:10:35.800Z,101217.63
2023-01-31T07:13:02.331Z,101205.00
2023-01-31T07:15:29.112Z,101190.72
2023-01-31T07:18:01.744Z,101180.28
2023-01-31T07:20:28.496Z,101172.72
2023-01-31T07:22:58.641Z,101188.75
2023-01-31T07:25:26.520Z,101189.25
2023-01-31T07:27:53.058Z,101192.03
2023-01-31T07:30:19.668Z,101192.13
2023-01-31T07:32:46.332Z,101184.56
2023-01-31T07:35:12.820Z,101186.47
2023-01-31T07:37:40.678Z,101183.78
2023-01-31T07:40:07.875Z,101181.31
2023-01-31T07:42:34.373Z,101186.94
2023-01-31T07:45:20.951Z,101191.22
2023-01-31T07:47:49.562Z,101194.63
2023-01-31T07:50:16.096Z,101190.25
2023-01-31T07:52:42.576Z,101188.84
2023-01-31T07:55:09.123Z,101193.03
2023-01-31T07:57:35.703Z,101195.41
2023-01-31T08:00:02.264Z,101195.91
2023-01-31T08:02:56.609Z,101192.16
2023-01-31T08:05:23.555Z,101199.19
2023-01-31T08:08:10.448Z,101188.88
2023-01-31T08:10:37.420Z,101187.88
2023-01-31T08:13:04.323Z,101182.41
2023-01-31T08:15:30.835Z,101175.34
2023-01-31T08:17:57.423Z,101187.16
2023-01-31T08:20:23.933Z,101187.88
2023-01-31T08:22:50.474Z,101178.13
2023-01-31T08:25:18.958Z,101186.28
2023-01-31T08:27:46.657Z,101183.00
2023-01-31T08:30:13.692Z,101176.75
2023-01-31T08:32:40.190Z,101172.97
2023-01-31T08:35:07.610Z,101167.91
2023-01-31T08:37:34.802Z,101166.22
2023-01-31T08:40:01.329Z,101149.53
2023-01-31T08:42:27.851Z,101158.66
2023-01-31T08:44:55.003Z,101157.28
2023-01-31T08:47:21.556Z,101158.06
2023-01-31T08:49:48.054Z,101160.94
2023-01-31T08:52:14.569Z,101155.88
2023-01-31T08:54:41.333Z,101158.44
2023-01-31T08:57:08.960Z,101155.97
2023-01-31T08:59:35.863Z,101155.66
2023-01-31T09:02:02.705Z,101143.34
2023-01-31T09:04:29.341Z,101150.81
2023-01-31T09:06:55.897Z,101149.59
2023-01-31T09:09:22.392Z,101146.63
2023-01-31T09:11:48.912Z,101140.34
2023-01-31T09:14:15.470Z,101138.13
2023-01-31T09:16:43.609Z,101134.34
2023-01-31T09:19:10.233Z,101134.69
2023-01-31T09:21:36.828Z,101134.56
2023-01-31T09:24:03.844Z,101119.34
2023-01-31T09:26:31.984Z,101117.53
2023-01-31T09:28:58.926Z,101126.19
2023-01-31T09:31:25.780Z,101128.78
2023-01-31T09:33:52.402Z,101119.63
2023-01-31T09:36:20.989Z,101121.72
2023-01-31T09:38:47.899Z,101120.22
2023-01-31T09:41:32.099Z,101119.81
2023-01-31T09:44:05.897Z,101104.28
2023-01-31T09:46:37.702Z,101118.59
2023-01-31T09:49:07.141Z,101106.13
2023-01-31T09:51:38.515Z,101103.63
2023-01-31T09:54:08.537Z,101096.66
2023-01-31T09:56:43.429Z,101091.09
2023-01-31T09:59:16.084Z,101092.88
2023-01-31T10:01:50.700Z,101086.47
2023-01-31T10:04:44.838Z,101088.06
2023-01-31T10:07:20.434Z,101077.78
2023-01-31T10:09:59.180Z,101076.50
2023-01-31T10:12:34.730Z,101071.06
2023-01-31T10:15:06.135Z,101071.06
2023-01-31T10:17:38.624Z,101065.09
2023-01-31T10:20:08.408Z,101061.94
2023-01-31T10:22:40.257Z,101064.81
2023-01-31T10:25:32.300Z,101063.22
2023-01-31T10:28:20.536Z,101068.41
2023-01-31T10:30:56.013Z,101063.56
2023-01-31T10:33:38.159Z,101040.16
2023-01-31T10:36:21.261Z,101033.09
2023-01-31T10:39:21.521Z,101027.84
2023-01-31T10:42:04.047Z,101024.59
2023-01-31T10:44:43.249Z,101022.81
2023-01-31T10:47:13.045Z,101019.09
2023-01-31T10:49:40.002Z,101022.13
2023-01-31T10:52:18.427Z,101008.06
2023-01-31T10:55:26.769Z,101009.06
2023-01-31T10:57:53.865Z,101002.78
2023-01-31T11:00:27.569Z,100994.50
2023-01-31T11:02:54.347Z,100990.38
2023-01-31T11:05:23.192Z,100986.78
2023-01-31T11:07:50.834Z,100976.31
2023-01-31T11:10:23.380Z,100973.81
2023-01-31T11:13:01.763Z,100971.38
2023-01-31T11:15:30.151Z,100960.34
2023-01-31T11:18:01.144Z,100970.59
2023-01-31T11:20:29.288Z,100951.38
2023-01-31T11:22:56.486Z,100946.34
2023-01-31T11:25:24.323Z,100936.38
2023-01-31T11:27:54.397Z,100926.19
2023-01-31T11:30:27.887Z,100925.56
2023-01-31T11:32:54.608Z,100911.69
2023-01-31T11:35:25.196Z,100914.22
2023-01-31T11:38:04.294Z,100913.25
2023-01-31T11:40:37.801Z,100907.69
2023-01-31T11:43:25.684Z,100905.03
2023-01-31T11:46:00.704Z,100891.88
2023-01-31T11:48:33.288Z,100886.22
2023-01-31T11:51:03.483Z,100879.09
2023-01-31T11:53:50.821Z,100869.91
2023-01-31T11:56:23.234Z,100870.09
2023-01-31T11:58:53.026Z,100853.97
2023-01-31T12:01:22.701Z,100854.00
2023-01-31T12:04:02.703Z,100847.50
2023-01-31T12:06:37.326Z,100843.81
2023-01-31T12:09:06.671Z,100818.66
2023-01-31T12:11:35.521Z,100817.03
2023-01-31T12:14:16.519Z,100817.06
2023-01-31T12:16:44.542Z,100810.81
2023-01-31T12:19:14.045Z,100801.31
2023-01-31T12:21:49.636Z,100805.41
2023-01-31T12:24:41.051Z,100791.03
2023-01-31T12:27:20.717Z,100797.00
2023-01-31T12:30:11.055Z,100786.94
2023-01-31T12:32:49.369Z,100790.06
2023-01-31T12:35:46.971Z,100783.28
2023-01-31T12:38:22.477Z,100773.81
2023-01-31T12:41:04.992Z,100769.28
2023-01-31T12:43:48.539Z,100764.03
2023-01-31T12:46:24.956Z,100755.28
2023-01-31T12:49:03.185Z,100750.88
2023-01-31T12:51:40.012Z,100744.41
2023-01-31T12:54:06.540Z,100745.81
2023-01-31T12:56:42.053Z,100729.72
2023-01-31T12:59:25.515Z,100735.69
2023-01-31T13:02:14.136Z,100724.78
2023-01-31T13:04:53.488Z,100716.72
2023-01-31T13:07:36.204Z,100719.84
2023-01-31T13:10:05.794Z,100712.47
2023-01-31T13:12:35.838Z,100718.78
2023-01-31T13:15:10.738Z,100712.19
2023-01-31T13:17:39.677Z,100711.31
2023-01-31T13:20:12.372Z,100711.59
2023-01-31T13:22:47.147Z,100711.03
2023-01-31T13:25:22.443Z,100707.59
2023-01-31T13:27:57.829Z,100708.81
2023-01-31T13:30:33.674Z,100700.56
2023-01-31T13:33:06.808Z,100704.38
2023-01-31T13:35:37.536Z,100693.47
2023-01-31T13:38:08.515Z,100692.47
2023-01-31T13:40:47.039Z,100694.22
2023-01-31T13:43:15.780Z,100691.06
2023-01-31T13:45:52.759Z,100681.91
2023-01-31T13:48:23.920Z,100683.69
2023-01-31T13:50:54.134Z,100684.91
2023-01-31T13:53:26.603Z,100692.50
2023-01-31T13:55:53.609Z,100681.34
2023-01-31T13:58:23.351Z,100687.00
2023-01-31T14:00:59.233Z,100678.66
2023-01-31T14:03:26.280Z,100685.47
2023-01-31T14:05:54.152Z,100681.66
2023-01-31T14:08:50.485Z,100672.06
2023-01-31T14:11:17.105Z,100681.22
2023-01-31T14:13:46.529Z,100664.97
2023-01-31T14:16:31.812Z,100672.19
2023-01-31T14:18:58.486Z,100661.63
2023-01-31T14:21:31.001Z,100672.69
2023-01-31T14:24:02.090Z,100666.25
2023-01-31T14:26:31.372Z,100658.94
2023-01-31T14:28:58.460Z,100653.44
2023-01-31T14:31:26.775Z,100660.25
2023-01-31T14:33:57.365Z,100656.00
2023-01-31T14:36:47.441Z,100643.69
2023-01-31T14:39:38.265Z,100644.13
2023-01-31T14:42:26.400Z,100648.09
2023-01-31T14:45:15.821Z,100639.59
2023-01-31T14:48:09.521Z,100639.28
2023-01-31T14:50:48.189Z,100649.84
2023-01-31T14:53:21.278Z,100644.50
2023-01-31T14:56:01.018Z,100640.88
2023-01-31T14:58:29.557Z,100637.72
2023-01-31T15:00:58.780Z,100634.88
2023-01-31T15:03:31.793Z,100624.50
2023-01-31T15:06:15.731Z,100621.47
2023-01-31T15:08:45.153Z,100631.44
2023-01-31T15:11:14.822Z,100630.78
2023-01-31T15:13:50.564Z,100624.81
2023-01-31T15:16:24.086Z,100609.47
2023-01-31T15:19:20.746Z,100615.03
2023-01-31T15:22:04.550Z,100628.94
2023-01-31T15:24:50.295Z,100608.22
2023-01-31T15:27:25.782Z,100618.81
2023-01-31T15:29:58.378Z,100603.22
2023-01-31T15:32:30.172Z,100597.97
2023-01-31T15:35:05.449Z,100606.03
2023-01-31T15:37:33.851Z,100610.47
2023-01-31T15:40:22.728Z,100619.16
2023-01-31T15:42:49.940Z,100616.31
2023-01-31T15:45:30.227Z,100614.25
2023-01-31T15:48:00.874Z,100623.44
2023-01-31T15:50:32.029Z,100609.22
2023-01-31T15:53:15.121Z,100610.16
2023-01-31T15:55:41.864Z,100602.56
2023-01-31T15:58:17.587Z,100595.63
2023-01-31T16:00:44.623Z,100591.06
2023-01-31T16:03:20.411Z,100601.97
2023-01-31T16:05:50.330Z,100597.19
2023-01-31T16:08:22.022Z,100599.13
2023-01-31T16:10:49.196Z,100598.97
2023-01-31T16:13:16.492Z,100600.88
2023-01-31T16:15:44.074Z,100600.88
2023-01-31T16:18:11.708Z,100602.00
2023-01-31T16:20:55.494Z,100606.41
2023-01-31T16:23:32.211Z,100603.41
2023-01-31T16:26:06.090Z,100599.47
2023-01-31T16:28:41.381Z,100604.53
2023-01-31T16:31:13.031Z,100616.38
2023-01-31T16:33:47.366Z,100607.34
2023-01-31T16:36:17.483Z,100620.47
2023-01-31T16:38:44.898Z,100615.88
2023-01-31T16:41:12.946Z,100607.50
2023-01-31T16:43:41.870Z,100614.31
2023-01-31T16:46:35.752Z,100601.81
2023-01-31T16:49:05.189Z,100608.63
2023-01-31T16:51:31.652Z,100614.31
2023-01-31T16:54:22.090Z,100596.28
2023-01-31T16:57:05.657Z,100605.78
2023-01-31T16:59:39.113Z,100592.03
2023-01-31T17:02:08.561Z,100576.34
2023-01-31T17:04:38.775Z,100573.06
2023-01-31T17:07:08.069Z,100574.63
2023-01-31T17:09:35.615Z,100571.44
2023-01-31T17:12:02.247Z,100572.56
2023-01-31T17:14:29.891Z,100580.31
2023-01-31T17:16:56.452Z,100582.38
2023-01-31T17:19:23.506Z,100581.56
2023-01-31T17:21:50.371Z,100572.56
2023-01-31T17:24:19.342Z,100573.97
2023-01-31T17:26:45.979Z,100568.59
2023-01-31T17:29:12.625Z,100569.09
2023-01-31T17:31:39.407Z,100565.28
2023-01-31T17:34:11.821Z,100556.44
2023-01-31T17:36:38.341Z,100565.00
2023-01-31T17:39:04.841Z,100544.56
2023-01-31T17:41:31.319Z,100544.25
2023-01-31T17:43:57.844Z,100539.53
2023-01-31T17:46:24.346Z,100538.72
2023-01-31T17:48:50.908Z,100532.84
2023-01-31T17:51:18.042Z,100539.00
2023-01-31T17:53:49.710Z,100545.03
2023-01-31T17:56:17.943Z,100518.16
2023-01-31T17:58:44.463Z,100508.66
2023-01-31T18:01:13.883Z,100484.81
2023-01-31T18:03:40.911Z,100473.91
2023-01-31T18:06:08.198Z,100481.78
2023-01-31T18:08:35.126Z,100481.97
2023-01-31T18:11:10.323Z,100489.84
2023-01-31T18:13:38.408Z,100492.72
2023-01-31T18:16:10.161Z,100500.59
2023-01-31T18:18:40.284Z,100480.03
2023-01-31T18:21:14.667Z,100487.00
2023-01-31T18:23:41.301Z,100489.03
2023-01-31T18:26:09.038Z,100489.03
2023-01-31T18:28:36.032Z,100475.22
2023-01-31T18:31:14.868Z,100485.56
2023-01-31T18:33:46.545Z,100491.22
2023-01-31T18:36:15.888Z,100483.28
2023-01-31T18:38:43.845Z,100470.78
2023-01-31T18:41:14.262Z,100468.81
2023-01-31T18:43:41.627Z,100465.69
2023-01-31T18:46:10.127Z,100474.69
2023-01-31T18:48:39.728Z,100475.13
2023-01-31T18:51:08.546Z,100452.97
2023-01-31T18:53:36.118Z,100470.81
2023-01-31T18:56:05.815Z,100463.88
2023-01-31T18:58:37.429Z,100458.00
2023-01-31T19:01:17.440Z,100442.34
2023-01-31T19:03:46.122Z,100476.66
2023-01-31T19:06:17.847Z,100463.06
2023-01-31T19:08:50.616Z,100460.19
2023-01-31T19:11:18.829Z,100461.44
2023-01-31T19:13:45.808Z,100460.19
2023-01-31T19:16:14.500Z,100473.84
2023-01-31T19:18:41.513Z,100460.88
2023-01-31T19:21:28.597Z,100452.31
2023-01-31T19:23:57.399Z,100450.56
2023-01-31T19:26:24.049Z,100442.28
2023-01-31T19:28:50.701Z,100439.00
2023-01-31T19:31:19.917Z,100436.00
2023-01-31T19:33:51.150Z,100436.47
2023-01-31T19:36:23.496Z,100453.69
2023-01-31T19:38:50.243Z,100488.22
2023-01-31T19:41:19.384Z,100512.59
2023-01-31T19:43:47.885Z,100534.22
2023-01-31T19:46:14.484Z,100525.97
2023-01-31T19:48:41.230Z,100514.94
2023-01-31T19:51:10.027Z,100506.06
2023-01-31T19:53:36.992Z,100501.50
2023-01-31T19:56:03.986Z,100516.47
2023-01-31T19:58:33.254Z,100513.59
2023-01-31T20:01:05.959Z,100524.50
2023-01-31T20:03:32.514Z,100525.31
2023-01-31T20:06:06.531Z,100538.66
2023-01-31T20:08:33.075Z,100533.00
2023-01-31T20:10:59.727Z,100521.84
2023-01-31T20:13:26.313Z,100525.13
2023-01-31T20:16:03.217Z,100522.31
2023-01-31T20:18:31.029Z,100517.44
2023-01-31T20:20:57.648Z,100509.25
2023-01-31T20:23:24.412Z,100515.69
2023-01-31T20:25:52.759Z,100534.97
2023-01-31T20:28:20.026Z,100535.13
2023-01-31T20:30:47.067Z,100552.94
2023-01-31T20:33:14.315Z,100554.72
2023-01-31T20:35:41.117Z,100556.91
2023-01-31T20:38:08.513Z,100568.13
2023-01-31T20:40:35.441Z,100569.53
2023-01-31T20:43:01.970Z,100562.28
2023-01-31T20:45:29.202Z,100573.66
2023-01-31T20:47:56.865Z,100573.81
2023-01-31T20:50:24.088Z,100575.38
2023-01-31T20:52:51.419Z,100578.50
2023-01-31T20:55:18.443Z,100570.94
2023-01-31T20:57:49.841Z,100588.47
2023-01-31T21:00:18.242Z,100580.06
2023-01-31T21:02:45.193Z,100581.66
2023-01-31T21:05:12.213Z,100574.25
2023-01-31T21:07:39.105Z,100577.38
2023-01-31T21:10:06.620Z,100593.47
2023-01-31T21:12:33.239Z,100583.56
2023-01-31T21:14:59.754Z,100593.19
2023-01-31T21:17:39.224Z,100598.06
2023-01-31T21:20:07.742Z,100600.25
2023-01-31T21:22:34.422Z,100613.53
2023-01-31T21:25:00.972Z,100598.88
2023-01-31T21:27:27.540Z,100603.94
2023-01-31T21:29:54.097Z,100599.22
2023-01-31T21:32:20.615Z,100607.13
2023-01-31T21:34:47.137Z,100609.66
2023-01-31T21:37:13.676Z,100627.22
2023-01-31T21:39:40.151Z,100609.34
2023-01-31T21:42:15.744Z,100597.53
2023-01-31T21:44:46.727Z,100591.97
2023-01-31T21:47:14.389Z,100586.16
2023-01-31T21:49:41.200Z,100590.75
2023-01-31T21:52:07.831Z,100608.28
2023-01-31T21:54:34.496Z,100642.53
2023-01-31T21:57:01.027Z,100644.09
2023-01-31T21:59:27.590Z,100643.63
2023-01-31T22:01:54.225Z,100626.41
2023-01-31T22:04:21.085Z,100635.22
2023-01-31T22:06:50.474Z,100626.28
2023-01-31T22:09:17.788Z,100617.16
2023-01-31T22:11:45.465Z,100619.69
2023-01-31T22:14:13.855Z,100627.25
2023-01-31T22:16:41.214Z,100619.66
2023-01-31T22:19:09.549Z,100628.63
2023-01-31T22:21:37.011Z,100630.22
2023-01-31T22:24:05.945Z,100611.75
2023-01-31T22:26:35.299Z,100608.88
2023-01-31T22:29:04.597Z,100609.88
2023-01-31T22:31:31.961Z,100611.41
2023-01-31T22:34:00.221Z,100614.25
2023-01-31T22:36:27.447Z,100617.34
2023-01-31T22:38:54.701Z,100618.44
2023-01-31T22:41:21.845Z,100624.91
2023-01-31T22:43:50.251Z,100610.91
2023-01-31T22:46:25.446Z,100618.19
2023-01-31T22:48:52.734Z,100624.66
2023-01-31T22:51:21.584Z,100620.06
2023-01-31T22:53:48.588Z,100612.66
2023-01-31T22:56:21.087Z,100614.69
2023-01-31T22:58:48.253Z,100603.97
2023-01-31T23:01:21.233Z,100618.00
2023-01-31T23:03:48.384Z,100628.28
2023-01-31T23:06:16.189Z,100622.28
2023-01-31T23:08:43.364Z,100624.75
2023-01-31T23:11:12.596Z,100619.72
2023-01-31T23:13:39.659Z,100634.75
2023-01-31T23:16:07.374Z,100621.81
2023-01-31T23:18:34.463Z,100624.34
2023-01-31T23:21:11.100Z,100622.94
2023-01-31T23:23:37.625Z,100624.72
2023-01-31T23:26:05.133Z,100623.16
2023-01-31T23:28:31.951Z,100612.44
2023-01-31T23:30:58.746Z,100614.19
2023-01-31T23:33:25.361Z,100614.31
2023-01-31T23:35:51.943Z,100610.09
2023-01-31T23:38:18.692Z,100602.19
2023-01-31T23:40:50.511Z,100603.94
2023-01-31T23:43:17.010Z,100609.47
2023-01-31T23:45:43.596Z,100605.84
2023-01-31T23:48:10.155Z,100614.97
2023-01-31T23:50:37.577Z,100607.22
2023-01-31T23:53:04.379Z,100605.50
2023-01-31T23:55:30.980Z,100603.75
2023-01-31T23:57:57.531Z,100598.53
